Time;durP1;ratioP1;P1;durP2;ratioP2;P2;SDS_P1;SDS_P2;PMS_P1;PMS_P2;Temp;Humidity;BMP_temperature;BMP_pressure;BME280_temperature;BME280_humidity;BME280_pressure;Samples;Min_cycle;Max_cycle;Signal;HPM_P1;HPM_P2
2022/03/26 00:01:50;;;;;;;0.70;0.70;;;;;;;2.50;67.73;98328.44;4893459;29;20058;-89
2022/03/26 00:04:18;;;;;;;0.70;0.70;;;;;;;2.46;67.99;98328.03;4917897;29;20067;-88
2022/03/26 00:06:45;;;;;;;0.70;0.70;;;;;;;2.45;67.85;98310.41;4924370;29;20622;-88
2022/03/26 00:09:12;;;;;;;0.70;0.70;;;;;;;2.46;67.90;98316.59;4916147;29;20076;-87
2022/03/26 00:11:39;;;;;;;0.60;0.60;;;;;;;2.39;67.93;98304.09;4917065;29;20058;-86
2022/03/26 00:14:07;;;;;;;0.70;0.70;;;;;;;2.29;68.02;98289.56;4917041;29;20119;-87
2022/03/26 00:16:34;;;;;;;0.60;0.60;;;;;;;2.30;68.17;98285.88;4880163;29;20512;-88
2022/03/26 00:19:02;;;;;;;0.60;0.60;;;;;;;2.28;68.56;98283.44;4897483;29;20052;-87
2022/03/26 00:21:30;;;;;;;0.70;0.70;;;;;;;2.31;68.54;98274.22;4910483;29;20072;-87
2022/03/26 00:23:57;;;;;;;0.70;0.70;;;;;;;2.38;68.34;98273.16;4907405;29;20580;-86
2022/03/26 00:26:25;;;;;;;0.68;0.68;;;;;;;2.36;68.07;98266.41;4909866;29;20107;-89
2022/03/26 00:28:52;;;;;;;0.60;0.60;;;;;;;2.29;68.50;98257.63;4910473;29;20107;-87
2022/03/26 00:31:19;;;;;;;0.55;0.55;;;;;;;2.25;68.30;98245.75;4908251;29;20044;-87
2022/03/26 00:33:46;;;;;;;0.63;0.63;;;;;;;2.20;68.66;98235.72;4912332;29;20423;-87
2022/03/26 00:36:14;;;;;;;0.63;0.63;;;;;;;2.19;68.69;98230.63;4872940;29;20047;-90
2022/03/26 00:38:43;;;;;;;0.70;0.70;;;;;;;2.07;68.75;98209.94;4922276;29;20052;-93
2022/03/26 00:41:23;;;;;;;0.70;0.70;;;;;;;1.95;69.06;98196.50;4950174;23;20078;-90
2022/03/26 00:43:56;;;;;;;0.60;0.60;;;;;;;2.03;69.08;98205.28;4923550;29;20066;-91
2022/03/26 00:46:24;;;;;;;0.60;0.60;;;;;;;2.07;68.93;98209.13;4889151;29;20056;-89
2022/03/26 00:48:51;;;;;;;0.63;0.63;;;;;;;2.04;68.87;98196.25;4908098;29;20150;-91
2022/03/26 00:51:18;;;;;;;0.50;0.50;;;;;;;2.08;69.10;98200.97;4918889;29;20587;-87
2022/03/26 00:53:47;;;;;;;0.70;0.70;;;;;;;2.12;68.82;98196.03;4918691;29;20052;-91
2022/03/26 00:56:14;;;;;;;0.70;0.70;;;;;;;2.08;68.67;98177.00;4921707;29;20103;-93
2022/03/26 00:58:43;;;;;;;0.63;0.63;;;;;;;2.11;68.46;98173.09;4918539;29;20048;-90
2022/03/26 01:01:11;;;;;;;0.60;0.60;;;;;;;2.09;68.72;98160.00;4885024;29;20515;-88
2022/03/26 01:03:39;;;;;;;0.55;0.55;;;;;;;2.08;68.47;98153.03;4900318;29;20048;-87
2022/03/26 01:06:07;;;;;;;0.70;0.70;;;;;;;2.07;68.39;98139.94;4899979;29;20083;-88
2022/03/26 01:08:34;;;;;;;0.70;0.70;;;;;;;2.06;68.26;98130.34;4917700;29;20583;-90
2022/03/26 01:11:01;;;;;;;0.60;0.60;;;;;;;2.18;67.83;98133.97;4899738;29;20044;-87
2022/03/26 01:13:30;;;;;;;0.68;0.68;;;;;;;2.31;67.26;98130.44;4916493;29;20048;-88
2022/03/26 01:15:57;;;;;;;0.70;0.70;;;;;;;2.37;67.19;98129.56;4916720;29;20083;-87
2022/03/26 01:18:24;;;;;;;0.40;0.40;;;;;;;2.46;66.47;98120.31;4917220;29;20052;-85
2022/03/26 01:20:52;;;;;;;0.70;0.70;;;;;;;2.47;66.34;98118.44;4917017;29;20055;-87
2022/03/26 01:23:20;;;;;;;0.60;0.60;;;;;;;2.40;66.25;98099.84;4918846;29;20464;-88
2022/03/26 01:25:47;;;;;;;0.70;0.70;;;;;;;2.40;66.38;98102.50;4919279;29;20056;-87
2022/03/26 01:28:14;;;;;;;0.70;0.70;;;;;;;2.31;66.14;98079.84;4888412;29;20419;-88
2022/03/26 01:30:42;;;;;;;0.68;0.68;;;;;;;2.35;65.95;98070.38;4917545;29;20055;-87
2022/03/26 01:33:09;;;;;;;0.70;0.70;;;;;;;2.38;65.76;98080.59;4928259;29;20070;-87
2022/03/26 01:35:36;;;;;;;0.60;0.60;;;;;;;2.41;65.72;98066.88;4919728;29;20124;-84
2022/03/26 01:38:05;;;;;;;0.70;0.70;;;;;;;2.41;65.69;98069.53;4916927;29;20075;-83
2022/03/26 01:40:34;;;;;;;0.70;0.70;;;;;;;2.44;65.45;98052.31;4918624;29;20052;-84
2022/03/26 01:43:01;;;;;;;0.60;0.60;;;;;;;2.41;65.33;98048.22;4918092;29;20431;-85
2022/03/26 01:45:28;;;;;;;0.60;0.60;;;;;;;2.40;65.36;98043.91;4920495;29;20056;-82
2022/03/26 01:47:57;;;;;;;0.70;0.70;;;;;;;2.48;65.03;98034.84;4901613;29;20138;-83
2022/03/26 01:50:25;;;;;;;0.70;0.70;;;;;;;2.48;64.78;98032.19;4923488;29;20052;-88
2022/03/26 01:52:54;;;;;;;0.60;0.60;;;;;;;2.48;64.65;98027.69;4931864;29;20534;-83
2022/03/26 01:55:22;;;;;;;0.70;0.70;;;;;;;2.47;64.67;98011.91;4907693;29;20028;-86
2022/03/26 01:57:50;;;;;;;0.70;0.70;;;;;;;2.50;64.57;98009.63;4938730;29;20116;-85
2022/03/26 02:00:17;;;;;;;0.60;0.60;;;;;;;2.48;64.33;98003.72;4920830;29;20056;-83
2022/03/26 02:02:45;;;;;;;0.65;0.65;;;;;;;2.49;64.16;97992.03;4899623;29;20052;-84
2022/03/26 02:05:14;;;;;;;0.65;0.65;;;;;;;2.54;64.10;97994.84;4897672;29;20573;-81
2022/03/26 02:07:43;;;;;;;0.60;0.60;;;;;;;2.53;64.14;97968.41;4914533;29;20051;-83
2022/03/26 02:10:12;;;;;;;0.70;0.70;;;;;;;2.54;63.77;97970.06;4914718;29;20624;-82
2022/03/26 02:12:39;;;;;;;0.52;0.52;;;;;;;2.56;63.80;97968.81;4916692;29;20115;-87
2022/03/26 02:15:08;;;;;;;0.50;0.50;;;;;;;2.63;63.75;97955.41;4899475;29;20074;-85
2022/03/26 02:17:36;;;;;;;0.70;0.70;;;;;;;2.66;63.66;97948.84;4917586;29;20052;-82
2022/03/26 02:20:09;;;;;;;0.65;0.65;;;;;;;2.68;63.09;97936.13;4916453;29;20059;-83
2022/03/26 02:22:37;;;;;;;0.60;0.60;;;;;;;2.75;63.05;97952.88;4898934;29;20060;-83
2022/03/26 02:25:06;;;;;;;0.70;0.70;;;;;;;2.76;62.92;97943.81;4918707;29;20048;-83
2022/03/26 02:27:34;;;;;;;0.70;0.70;;;;;;;2.75;62.67;97942.22;4921851;29;20057;-83
2022/03/26 02:30:08;;;;;;;0.70;0.70;;;;;;;2.77;62.54;97932.97;4919773;29;20048;-84
2022/03/26 02:32:35;;;;;;;0.55;0.55;;;;;;;2.78;62.58;97933.75;4905691;29;20076;-83
2022/03/26 02:35:03;;;;;;;0.60;0.60;;;;;;;2.74;62.56;97930.75;4928187;29;20052;-83
2022/03/26 02:37:31;;;;;;;0.70;0.70;;;;;;;2.80;62.58;97940.50;4932367;29;20071;-83
2022/03/26 02:39:59;;;;;;;0.68;0.68;;;;;;;2.83;62.03;97920.59;4938822;29;20064;-85
2022/03/26 02:42:26;;;;;;;0.60;0.60;;;;;;;2.87;62.01;97913.00;4934161;29;20052;-85
2022/03/26 02:44:54;;;;;;;0.70;0.70;;;;;;;2.89;61.87;97908.25;4920307;29;20048;-84
2022/03/26 02:47:22;;;;;;;0.70;0.70;;;;;;;2.93;61.28;97901.44;4920905;29;20080;-84
2022/03/26 02:49:50;;;;;;;0.70;0.70;;;;;;;2.92;61.42;97891.81;4902467;29;20389;-84
2022/03/26 02:52:17;;;;;;;0.70;0.70;;;;;;;2.97;61.36;97894.63;4918290;29;20056;-85
2022/03/26 02:54:44;;;;;;;0.60;0.60;;;;;;;3.00;61.29;97883.50;4919120;29;20094;-82
2022/03/26 02:57:12;;;;;;;0.50;0.50;;;;;;;3.03;61.12;97867.88;4918326;29;20605;-84
2022/03/26 02:59:39;;;;;;;0.60;0.60;;;;;;;2.98;61.37;97866.94;4901812;29;20488;-83
2022/03/26 03:02:09;;;;;;;0.70;0.70;;;;;;;2.93;61.70;97862.25;4919500;29;20048;-83
2022/03/26 03:04:38;;;;;;;0.55;0.55;;;;;;;2.91;61.94;97852.84;4919090;29;20474;-82
2022/03/26 03:07:05;;;;;;;0.70;0.70;;;;;;;2.88;62.09;97846.13;4901555;29;20111;-86
2022/03/26 03:09:32;;;;;;;0.60;0.60;;;;;;;2.92;62.15;97839.31;4901795;29;20048;-86
2022/03/26 03:12:00;;;;;;;0.60;0.60;;;;;;;2.92;62.06;97827.84;4919106;29;20052;-84
2022/03/26 03:14:28;;;;;;;0.60;0.60;;;;;;;2.94;62.14;97815.94;4903327;29;20112;-86
2022/03/26 03:16:55;;;;;;;0.60;0.60;;;;;;;2.94;62.24;97796.47;4903106;29;20048;-85
2022/03/26 03:19:24;;;;;;;0.60;0.60;;;;;;;2.92;62.16;97810.00;4922653;29;20500;-84
2022/03/26 03:21:51;;;;;;;0.70;0.70;;;;;;;3.01;61.85;97806.00;4902134;29;20135;-87
2022/03/26 03:24:18;;;;;;;0.50;0.50;;;;;;;3.01;61.76;97792.69;4901610;29;20088;-85
2022/03/26 03:26:46;;;;;;;0.50;0.50;;;;;;;2.97;61.79;97798.69;4918143;29;20148;-85
2022/03/26 03:29:13;;;;;;;0.70;0.70;;;;;;;2.91;61.72;97759.59;4902258;29;20056;-85
2022/03/26 03:31:47;;;;;;;0.60;0.60;;;;;;;2.92;61.91;97754.03;4919543;29;20044;-87
2022/03/26 03:34:15;;;;;;;0.70;0.70;;;;;;;2.89;62.08;97743.84;4886756;29;20052;-84
2022/03/26 03:36:42;;;;;;;0.70;0.70;;;;;;;2.89;62.37;97745.69;4900860;29;20048;-83
2022/03/26 03:39:09;;;;;;;0.60;0.60;;;;;;;2.86;62.63;97754.13;4917879;29;20054;-86
2022/03/26 03:41:36;;;;;;;0.70;0.70;;;;;;;2.86;62.58;97751.47;4917876;29;20565;-89
2022/03/26 03:44:03;;;;;;;0.70;0.70;;;;;;;2.89;62.59;97748.38;4918187;29;20075;-85
2022/03/26 03:46:32;;;;;;;0.70;0.70;;;;;;;2.85;62.33;97723.19;4901884;29;20048;-86
2022/03/26 03:49:03;;;;;;;0.70;0.70;;;;;;;2.93;61.98;97737.00;4919323;29;20063;-87
2022/03/26 03:51:32;;;;;;;0.60;0.60;;;;;;;2.93;62.22;97736.19;4917518;29;20056;-87
2022/03/26 03:53:59;;;;;;;0.70;0.70;;;;;;;2.92;62.02;97722.06;4901506;29;20059;-87
2022/03/26 03:56:28;;;;;;;0.70;0.70;;;;;;;2.90;62.22;97732.13;4885118;29;20060;-85
2022/03/26 03:58:56;;;;;;;0.70;0.70;;;;;;;2.92;61.87;97731.91;4903727;29;20044;-91
2022/03/26 04:01:23;;;;;;;0.60;0.60;;;;;;;2.94;61.79;97711.19;4921069;29;20052;-85
2022/03/26 04:03:50;;;;;;;0.70;0.70;;;;;;;2.93;62.04;97704.22;4901517;29;20064;-85
2022/03/26 04:06:17;;;;;;;0.60;0.60;;;;;;;2.94;61.91;97713.84;4901848;29;20587;-89
2022/03/26 04:08:44;;;;;;;0.63;0.63;;;;;;;2.96;61.57;97703.75;4918105;29;20056;-90
2022/03/26 04:11:11;;;;;;;0.60;0.60;;;;;;;3.00;61.74;97699.59;4901815;29;20444;-88
2022/03/26 04:13:40;;;;;;;0.70;0.70;;;;;;;3.04;61.30;97700.78;4901633;29;20472;-86
2022/03/26 04:16:07;;;;;;;0.60;0.60;;;;;;;3.08;61.06;97685.94;4917957;29;20048;-88
2022/03/26 04:18:35;;;;;;;0.70;0.70;;;;;;;3.06;61.00;97681.88;4918748;29;20056;-89
2022/03/26 04:21:02;;;;;;;0.60;0.60;;;;;;;3.07;61.04;97671.00;4917933;29;20588;-89
2022/03/26 04:23:29;;;;;;;0.60;0.60;;;;;;;3.04;61.11;97666.94;4844316;29;20144;-89
2022/03/26 04:25:56;;;;;;;0.70;0.70;;;;;;;3.12;60.82;97665.00;4859593;29;20088;-89
2022/03/26 04:28:24;;;;;;;0.60;0.60;;;;;;;3.10;60.86;97651.06;4860630;29;20122;-88
2022/03/26 04:30:51;;;;;;;0.68;0.68;;;;;;;3.15;61.05;97652.00;4845545;29;20049;-89
2022/03/26 04:33:18;;;;;;;0.70;0.70;;;;;;;3.19;61.12;97649.69;4860907;29;20101;-89
2022/03/26 04:35:46;;;;;;;0.60;0.60;;;;;;;3.18;60.78;97640.06;4845783;29;20057;-88
2022/03/26 04:38:13;;;;;;;0.70;0.70;;;;;;;3.26;60.64;97619.19;4845500;29;20049;-89
2022/03/26 04:40:46;;;;;;;0.60;0.60;;;;;;;3.33;60.90;97624.44;4815408;29;20053;-87
2022/03/26 04:43:13;;;;;;;0.70;0.70;;;;;;;3.43;60.16;97615.84;4866274;29;20057;-89
2022/03/26 04:45:41;;;;;;;0.70;0.70;;;;;;;3.40;60.43;97593.13;4850341;29;20049;-88
2022/03/26 04:48:08;;;;;;;0.70;0.70;;;;;;;3.45;60.19;97595.91;4865837;29;20517;-88
2022/03/26 04:50:35;;;;;;;0.70;0.70;;;;;;;3.53;60.07;97583.25;4861478;29;20050;-88
2022/03/26 04:53:03;;;;;;;0.70;0.70;;;;;;;3.55;60.10;97557.16;4862031;29;20493;-89
2022/03/26 04:55:30;;;;;;;0.57;0.57;;;;;;;3.56;59.97;97559.59;4897080;29;20119;-87
2022/03/26 04:57:57;;;;;;;0.60;0.60;;;;;;;3.59;60.23;97547.63;4920292;29;20170;-88
2022/03/26 05:00:29;;;;;;;0.70;0.70;;;;;;;3.66;59.83;97541.13;4902080;29;20055;-89
2022/03/26 05:02:56;;;;;;;0.70;0.70;;;;;;;3.68;59.77;97549.72;4917808;29;20376;-90
2022/03/26 05:05:25;;;;;;;0.70;0.70;;;;;;;3.72;59.72;97536.69;4921772;29;20056;-86
2022/03/26 05:07:55;;;;;;;0.60;0.60;;;;;;;3.74;59.64;97528.47;4914789;29;20095;-88
2022/03/26 05:10:27;;;;;;;0.70;0.70;;;;;;;3.85;59.50;97519.63;4920934;29;20052;-89
2022/03/26 05:12:56;;;;;;;0.60;0.60;;;;;;;3.85;59.16;97501.75;4903973;29;20052;-89
2022/03/26 05:15:26;;;;;;;0.60;0.60;;;;;;;3.89;59.45;97499.41;4903061;29;20056;-89
2022/03/26 05:17:56;;;;;;;0.60;0.60;;;;;;;3.87;59.68;97510.34;4919637;29;20569;-89
2022/03/26 05:20:29;;;;;;;0.60;0.60;;;;;;;3.85;59.28;97493.75;4900795;29;20040;-89
2022/03/26 05:22:58;;;;;;;0.70;0.70;;;;;;;3.99;59.15;97480.09;4887162;29;20411;-88
2022/03/26 05:25:25;;;;;;;0.70;0.70;;;;;;;3.97;59.28;97484.88;4901173;29;20200;-90
2022/03/26 05:27:52;;;;;;;0.60;0.60;;;;;;;3.97;59.42;97480.31;4919305;29;20495;-89
2022/03/26 05:30:47;;;;;;;0.70;0.70;;;;;;;4.07;59.15;97479.72;4919736;29;20048;-87
2022/03/26 05:33:14;;;;;;;0.67;0.67;;;;;;;4.04;58.99;97477.53;4916815;29;20048;-87
2022/03/26 05:35:41;;;;;;;0.70;0.70;;;;;;;4.04;59.17;97443.63;4919245;29;20143;-88
2022/03/26 05:38:08;;;;;;;0.60;0.60;;;;;;;4.01;59.46;97449.44;4918769;29;20052;-89
2022/03/26 05:40:35;;;;;;;0.68;0.68;;;;;;;4.10;59.03;97479.22;4902919;29;20056;-89
2022/03/26 05:43:03;;;;;;;0.60;0.60;;;;;;;4.13;58.95;97458.22;4904079;29;20112;-89
2022/03/26 05:45:31;;;;;;;0.60;0.60;;;;;;;4.13;58.96;97449.41;4902956;29;20063;-88
2022/03/26 05:48:02;;;;;;;0.65;0.65;;;;;;;4.20;59.06;97442.00;4908955;29;20113;-89
2022/03/26 05:50:29;;;;;;;0.60;0.60;;;;;;;4.16;58.87;97438.22;4879195;29;20151;-88
2022/03/26 05:52:57;;;;;;;0.55;0.55;;;;;;;4.24;58.72;97421.00;4889601;29;20115;-90
2022/03/26 05:55:25;;;;;;;0.80;0.80;;;;;;;4.27;58.75;97421.31;4874248;29;20052;-89
2022/03/26 05:57:52;;;;;;;0.60;0.60;;;;;;;4.36;58.55;97420.94;4904813;29;20048;-88
2022/03/26 06:00:19;;;;;;;0.60;0.60;;;;;;;4.37;58.56;97419.88;4902869;29;20099;-89
2022/03/26 06:02:47;;;;;;;0.70;0.70;;;;;;;4.39;58.72;97397.19;4920418;29;20048;-89
2022/03/26 06:05:16;;;;;;;0.70;0.70;;;;;;;4.40;58.47;97417.50;4918138;29;20067;-88
2022/03/26 06:07:43;;;;;;;0.60;0.60;;;;;;;4.39;58.50;97375.03;4919006;29;20052;-88
2022/03/26 06:10:21;;;;;;;0.70;0.70;;;;;;;4.37;58.50;97371.78;4915881;29;20389;-89
2022/03/26 06:12:48;;;;;;;0.60;0.60;;;;;;;4.48;57.98;97365.53;4871523;29;20107;-88
2022/03/26 06:15:16;;;;;;;0.70;0.70;;;;;;;4.61;58.14;97369.72;4903820;29;20147;-87
2022/03/26 06:18:04;;;;;;;0.70;0.70;;;;;;;4.67;57.84;97355.38;4905379;29;20071;-88
2022/03/26 06:20:36;;;;;;;0.60;0.60;;;;;;;4.66;57.65;97335.88;4902145;29;20396;-89
2022/03/26 06:23:04;;;;;;;0.70;0.70;;;;;;;4.61;57.52;97324.28;4915595;29;20131;-89
2022/03/26 06:25:32;;;;;;;0.73;0.73;;;;;;;4.57;58.23;97334.69;4921537;29;20052;-88
2022/03/26 06:27:59;;;;;;;0.70;0.70;;;;;;;4.53;58.44;97326.34;4887869;29;20084;-86
2022/03/26 06:30:26;;;;;;;0.75;0.75;;;;;;;4.50;58.30;97307.31;4892768;29;20063;-84
2022/03/26 06:32:53;;;;;;;0.65;0.65;;;;;;;4.59;58.26;97310.41;4914456;29;20154;-87
2022/03/26 06:35:21;;;;;;;0.68;0.68;;;;;;;4.59;58.04;97302.38;4904245;29;20083;-89
2022/03/26 06:37:48;;;;;;;0.60;0.60;;;;;;;4.53;58.09;97288.94;4871224;29;20048;-86
2022/03/26 06:40:15;;;;;;;0.70;0.70;;;;;;;4.55;58.30;97294.03;4918667;29;20071;-89
2022/03/26 06:42:42;;;;;;;0.60;0.60;;;;;;;4.57;58.13;97281.25;4916529;29;20112;-85
2022/03/26 06:45:15;;;;;;;0.60;0.60;;;;;;;4.64;58.32;97279.19;4891693;29;20424;-85
2022/03/26 06:47:44;;;;;;;0.60;0.60;;;;;;;4.57;58.43;97255.31;4910973;29;20055;-83
2022/03/26 06:50:11;;;;;;;0.70;0.70;;;;;;;4.62;58.36;97251.91;4916632;29;20075;-87
2022/03/26 06:52:38;;;;;;;0.70;0.70;;;;;;;4.70;58.26;97261.34;4915556;29;20551;-84
2022/03/26 06:55:07;;;;;;;0.70;0.70;;;;;;;4.75;57.93;97256.88;4893275;29;20052;-86
2022/03/26 06:57:36;;;;;;;0.70;0.70;;;;;;;4.77;57.81;97236.06;4916513;29;20047;-84
2022/03/26 07:00:05;;;;;;;0.70;0.70;;;;;;;4.77;57.98;97227.22;4903926;29;20432;-85
2022/03/26 07:02:32;;;;;;;0.60;0.60;;;;;;;4.75;58.03;97219.47;4895811;29;20115;-85
2022/03/26 07:04:59;;;;;;;0.70;0.70;;;;;;;4.81;58.24;97209.66;4900509;29;20829;-84
2022/03/26 07:07:26;;;;;;;0.60;0.60;;;;;;;4.79;58.07;97203.75;4921401;29;20047;-85
2022/03/26 07:09:58;;;;;;;0.60;0.60;;;;;;;4.78;57.87;97178.88;4920058;29;20077;-87
2022/03/26 07:12:27;;;;;;;0.68;0.68;;;;;;;4.85;57.74;97191.22;4908170;29;20116;-87
2022/03/26 07:14:54;;;;;;;0.60;0.60;;;;;;;4.84;57.79;97187.75;4905546;29;20542;-86
2022/03/26 07:17:22;;;;;;;0.60;0.60;;;;;;;4.83;57.54;97175.44;4909955;29;20057;-85
2022/03/26 07:19:51;;;;;;;0.60;0.60;;;;;;;4.91;57.73;97176.84;4864595;29;20546;-87
2022/03/26 07:22:18;;;;;;;0.70;0.70;;;;;;;4.83;57.35;97161.28;4896103;29;20397;-87
2022/03/26 07:24:46;;;;;;;0.60;0.60;;;;;;;4.93;57.70;97154.16;4884076;29;20112;-88
2022/03/26 07:27:13;;;;;;;0.70;0.70;;;;;;;4.91;57.49;97136.75;4900265;29;20048;-87
2022/03/26 07:29:40;;;;;;;0.60;0.60;;;;;;;5.00;57.26;97137.91;4864687;29;20059;-88
2022/03/26 07:32:08;;;;;;;0.70;0.70;;;;;;;4.99;57.46;97141.66;4880456;29;20048;-86
2022/03/26 07:34:36;;;;;;;0.60;0.60;;;;;;;4.93;57.62;97127.41;4867489;29;20651;-88
2022/03/26 07:37:06;;;;;;;0.70;0.70;;;;;;;4.90;57.74;97124.47;4896512;29;20068;-89
2022/03/26 07:39:38;;;;;;;0.50;0.50;;;;;;;4.80;57.48;97081.59;4901428;29;20122;-86
2022/03/26 07:42:07;;;;;;;0.70;0.70;;;;;;;4.80;57.53;97109.13;4888040;29;20401;-86
2022/03/26 07:44:35;;;;;;;0.50;0.50;;;;;;;4.89;57.48;97112.16;4904076;29;20072;-86
2022/03/26 07:47:03;;;;;;;0.60;0.60;;;;;;;4.79;57.56;97083.47;4895243;29;20055;-86
2022/03/26 07:49:31;;;;;;;0.70;0.70;;;;;;;4.85;57.90;97095.00;4923664;29;20551;-87
2022/03/26 07:51:58;;;;;;;0.70;0.70;;;;;;;4.75;58.46;97090.38;4870249;29;20187;-88
2022/03/26 07:54:26;;;;;;;0.60;0.60;;;;;;;4.47;59.91;97060.19;4860422;29;20136;-87
2022/03/26 07:56:53;;;;;;;0.60;0.60;;;;;;;4.31;60.71;97066.47;4910097;29;20562;-86
2022/03/26 07:59:20;;;;;;;0.57;0.57;;;;;;;4.20;61.60;97044.16;4914900;29;20052;-86
2022/03/26 08:01:47;;;;;;;0.60;0.60;;;;;;;4.08;62.36;97068.34;4878901;29;20052;-86
2022/03/26 08:04:14;;;;;;;0.70;0.70;;;;;;;4.08;63.04;97060.34;4879345;29;20040;-86
2022/03/26 08:06:42;;;;;;;0.50;0.50;;;;;;;3.88;64.13;97046.75;4880260;29;20112;-85
2022/03/26 08:09:09;;;;;;;0.70;0.70;;;;;;;3.75;65.06;97039.94;4867014;29;20056;-84
2022/03/26 08:11:36;;;;;;;0.65;0.65;;;;;;;3.77;66.10;97043.16;4887764;29;20353;-87
2022/03/26 08:14:03;;;;;;;0.70;0.70;;;;;;;3.69;67.36;97022.25;4899362;29;20116;-87
2022/03/26 08:16:30;;;;;;;0.70;0.70;;;;;;;3.57;68.33;97000.22;4921283;29;20060;-88
2022/03/26 08:18:58;;;;;;;0.70;0.70;;;;;;;3.53;68.38;97015.91;4907645;29;20096;-85
2022/03/26 08:21:25;;;;;;;0.70;0.70;;;;;;;3.49;69.11;97006.78;4869016;29;20049;-87
2022/03/26 08:23:53;;;;;;;0.70;0.70;;;;;;;3.34;70.69;96994.09;4880500;29;20048;-87
2022/03/26 08:26:22;;;;;;;0.70;0.70;;;;;;;3.22;71.76;97004.88;4899626;29;20095;-87
2022/03/26 08:28:51;;;;;;;0.60;0.60;;;;;;;3.14;72.22;96965.31;4917415;29;20056;-88
2022/03/26 08:31:19;;;;;;;0.70;0.70;;;;;;;2.98;72.36;96958.94;4908962;29;20081;-85
2022/03/26 08:33:46;;;;;;;0.80;0.80;;;;;;;2.97;72.47;96965.34;4900958;29;20044;-86
2022/03/26 08:36:14;;;;;;;0.70;0.70;;;;;;;2.99;72.55;96970.44;4895425;29;20053;-84
2022/03/26 08:38:44;;;;;;;0.80;0.80;;;;;;;2.98;72.64;96950.16;4903188;29;20053;-85
2022/03/26 08:41:17;;;;;;;0.70;0.70;;;;;;;3.25;72.34;96950.25;4902924;29;20054;-88
2022/03/26 08:43:44;;;;;;;0.80;0.80;;;;;;;3.35;71.40;96931.69;4887049;29;20076;-88
2022/03/26 08:46:11;;;;;;;0.60;0.60;;;;;;;3.33;72.00;96925.81;4883895;29;20057;-87
2022/03/26 08:48:39;;;;;;;0.70;0.70;;;;;;;3.35;71.59;96912.25;4889879;29;20405;-88
2022/03/26 08:51:06;;;;;;;0.60;0.60;;;;;;;3.31;71.84;96932.44;4884421;29;20052;-86
2022/03/26 08:53:34;;;;;;;0.60;0.60;;;;;;;3.14;72.24;96935.16;4918047;29;20080;-88
2022/03/26 08:56:01;;;;;;;0.60;0.60;;;;;;;3.03;74.17;96945.69;4876481;29;20052;-90
2022/03/26 08:58:29;;;;;;;0.70;0.70;;;;;;;3.01;74.40;96937.16;4929904;29;20482;-90
2022/03/26 09:00:56;;;;;;;0.70;0.70;;;;;;;3.00;74.16;96932.88;4932339;29;20085;-88
2022/03/26 09:03:24;;;;;;;0.70;0.70;;;;;;;2.90;75.59;96915.94;4935941;29;20036;-88
2022/03/26 09:05:57;;;;;;;0.70;0.70;;;;;;;2.88;75.93;96929.50;4882061;29;20033;-89
2022/03/26 09:08:26;;;;;;;0.68;0.68;;;;;;;2.79;76.75;96925.66;4890317;29;20056;-86
2022/03/26 09:10:54;;;;;;;0.63;0.63;;;;;;;2.77;77.18;96915.22;4883610;29;20408;-86
2022/03/26 09:13:21;;;;;;;0.70;0.70;;;;;;;2.73;77.70;96918.63;4880731;29;20147;-90
2022/03/26 09:15:50;;;;;;;0.68;0.68;;;;;;;2.56;78.87;96951.44;4858687;29;20054;-90
2022/03/26 09:18:22;;;;;;;0.80;0.80;;;;;;;2.56;79.65;96898.16;4846993;29;20060;-86
2022/03/26 09:20:55;;;;;;;0.80;0.80;;;;;;;2.38;80.88;96911.72;4866651;29;20460;-88
2022/03/26 09:23:23;;;;;;;0.90;0.90;;;;;;;2.27;82.26;96913.44;4868089;29;20050;-87
2022/03/26 09:25:50;;;;;;;0.60;0.60;;;;;;;2.19;82.67;96919.16;4859544;29;20053;-85
2022/03/26 09:28:17;;;;;;;0.70;0.70;;;;;;;2.17;83.60;96907.94;4858534;29;20108;-88
2022/03/26 09:30:45;;;;;;;0.70;0.70;;;;;;;2.05;84.14;96894.72;4871569;29;20054;-86
2022/03/26 09:33:12;;;;;;;0.50;0.50;;;;;;;2.09;84.86;96905.69;4852248;29;20052;-88
2022/03/26 09:35:40;;;;;;;0.70;0.70;;;;;;;2.08;85.30;96899.56;4864882;29;20036;-86
2022/03/26 09:38:07;;;;;;;0.60;0.60;;;;;;;2.05;85.53;96896.56;4867066;29;20144;-88
2022/03/26 09:40:35;;;;;;;0.75;0.75;;;;;;;2.00;86.12;96889.34;4889290;29;20590;-87
2022/03/26 09:43:02;;;;;;;0.70;0.70;;;;;;;1.98;86.62;96896.75;4861044;29;20147;-88
2022/03/26 09:45:29;;;;;;;0.63;0.63;;;;;;;1.93;86.67;96873.50;4852608;29;20513;-87
2022/03/26 09:47:57;;;;;;;0.70;0.70;;;;;;;1.87;86.77;96866.47;4881192;29;20052;-87
2022/03/26 09:50:27;;;;;;;0.60;0.60;;;;;;;1.94;87.09;96888.41;4898239;29;20052;-89
2022/03/26 09:52:56;;;;;;;0.70;0.70;;;;;;;1.97;87.44;96889.78;4835496;29;20063;-91
2022/03/26 09:55:24;;;;;;;0.77;0.77;;;;;;;1.97;87.07;96887.13;4875565;29;20072;-89
2022/03/26 09:57:52;;;;;;;0.70;0.70;;;;;;;2.02;86.82;96887.22;4877470;29;20144;-84
2022/03/26 10:00:19;;;;;;;0.70;0.70;;;;;;;2.03;86.84;96880.84;4841541;29;20165;-84
2022/03/26 10:02:46;;;;;;;0.70;0.70;;;;;;;2.01;86.94;96864.31;4857663;29;20053;-84
2022/03/26 10:05:17;;;;;;;0.63;0.63;;;;;;;2.11;86.51;96856.50;4872623;29;20085;-84
2022/03/26 10:07:46;;;;;;;0.77;0.77;;;;;;;2.17;86.17;96862.69;4857855;29;20045;-84
2022/03/26 10:10:22;;;;;;;0.70;0.70;;;;;;;2.27;85.72;96864.72;4872519;29;20068;-84
2022/03/26 10:12:51;;;;;;;0.60;0.60;;;;;;;2.35;85.38;96849.13;4872895;29;20057;-83
2022/03/26 10:15:19;;;;;;;0.70;0.70;;;;;;;2.35;85.43;96851.78;4873556;29;20477;-85
2022/03/26 10:18:08;;;;;;;0.80;0.80;;;;;;;2.46;85.19;96865.28;4851680;29;10001033;-83
2022/03/26 10:20:35;;;;;;;0.70;0.70;;;;;;;2.46;85.01;96860.75;4892136;29;20266;-84
2022/03/26 10:23:02;;;;;;;0.60;0.60;;;;;;;2.45;85.16;96869.75;4862585;29;20135;-86
2022/03/26 10:25:31;;;;;;;0.55;0.55;;;;;;;2.50;85.04;96861.84;4893652;29;20057;-85
2022/03/26 10:27:59;;;;;;;0.80;0.80;;;;;;;2.50;85.19;96858.38;4894034;29;20060;-85
2022/03/26 10:33:27;;;;;;;0.70;0.70;;;;;;;2.55;84.79;96859.25;4880287;29;20093;-85
2022/03/26 10:36:00;;;;;;;0.60;0.60;;;;;;;2.54;84.68;96844.34;4892584;29;20052;-86
2022/03/26 10:38:29;;;;;;;0.70;0.70;;;;;;;2.51;84.69;96847.50;4893821;29;20895;-86
2022/03/26 10:41:06;;;;;;;0.80;0.80;;;;;;;2.53;84.37;96829.44;4895112;29;20064;-84
2022/03/26 10:43:39;;;;;;;0.70;0.70;;;;;;;2.65;83.84;96831.16;4898925;29;20056;-85
2022/03/26 10:46:07;;;;;;;0.70;0.70;;;;;;;2.75;83.59;96805.47;4866578;29;20052;-85
2022/03/26 10:48:36;;;;;;;0.77;0.77;;;;;;;2.90;82.45;96806.69;4909436;29;20051;-86
2022/03/26 10:51:13;;;;;;;0.80;0.80;;;;;;;3.15;80.95;96806.19;4899698;29;20459;-87
2022/03/26 10:53:42;;;;;;;0.80;0.80;;;;;;;3.24;78.80;96794.81;4887764;29;20056;-83
2022/03/26 10:56:11;;;;;;;0.90;0.90;;;;;;;3.43;77.36;96792.59;4934457;29;20028;-87
2022/03/26 10:58:40;;;;;;;0.70;0.70;;;;;;;3.55;76.71;96786.31;4884969;29;20125;-85
2022/03/26 11:01:08;;;;;;;0.77;0.77;;;;;;;3.85;74.42;96810.56;4886108;29;20058;-85
2022/03/26 11:03:36;;;;;;;0.90;0.90;;;;;;;3.84;73.26;96774.25;4918878;29;20052;-85
2022/03/26 11:06:08;;;;;;;1.50;1.40;;;;;;;5.62;69.38;96769.88;4925002;29;20332;-85
2022/03/26 11:08:37;;;;;;;1.33;1.23;;;;;;;7.12;62.40;96767.41;4910103;29;20112;-84
2022/03/26 11:11:11;;;;;;;1.38;1.27;;;;;;;7.78;60.07;96757.31;4894876;29;20543;-86
2022/03/26 11:13:46;;;;;;;1.10;1.10;;;;;;;8.64;57.09;96754.91;4922820;29;20048;-85
2022/03/26 11:16:52;;;;;;;0.70;0.70;;;;;;;7.23;59.57;96727.13;4914387;29;20038;-86
2022/03/26 11:19:43;;;;;;;0.70;0.70;;;;;;;5.69;64.16;96746.34;4906529;29;20052;-85
2022/03/26 11:22:25;;;;;;;0.60;0.60;;;;;;;4.61;67.64;96832.69;4927768;29;20079;-84
2022/03/26 11:25:17;;;;;;;0.55;0.55;;;;;;;1.78;74.66;96873.25;4916878;29;20687;-84
2022/03/26 11:27:56;;;;;;;0.70;0.70;;;;;;;0.67;80.20;96921.31;4927789;29;20048;-83
2022/03/26 11:30:48;;;;;;;0.60;0.60;;;;;;;0.14;82.42;96908.97;4907931;29;20484;-84
2022/03/26 11:33:18;;;;;;;0.70;0.70;;;;;;;-0.19;84.32;96886.44;4884091;29;20078;-84
2022/03/26 11:35:55;;;;;;;0.77;0.77;;;;;;;-0.06;85.07;96886.22;4908157;29;20052;-85
2022/03/26 11:38:24;;;;;;;0.90;0.90;;;;;;;0.99;84.64;96892.53;4915987;29;20101;-85
2022/03/26 11:40:54;;;;;;;0.90;0.90;;;;;;;2.13;80.46;96875.69;4901286;29;20061;-84
2022/03/26 11:43:42;;;;;;;0.80;0.80;;;;;;;2.22;77.63;96891.25;4901021;29;20136;-84
2022/03/26 11:52:22;;;;;;;1.30;1.20;;;;;;;5.45;67.01;96887.88;4899371;29;20139;-84
2022/03/26 11:54:55;;;;;;;1.35;1.25;;;;;;;5.81;63.43;96850.47;4903113;29;20504;-84
2022/03/26 11:57:24;;;;;;;1.33;1.23;;;;;;;6.94;61.91;96830.53;4876842;29;20056;-88
2022/03/26 11:59:52;;;;;;;1.27;1.20;;;;;;;7.18;57.26;96834.44;4906114;29;20051;-86